sensor_id;sensor_type;location;lat;lon;timestamp;temperature;humidity
67163;DHT22;54092;53.088;8.850;2024-02-15T00:01:09;11.90;99.90
67163;DHT22;54092;53.088;8.850;2024-02-15T00:03:35;11.90;99.90
67163;DHT22;54092;53.088;8.850;2024-02-15T00:06:01;11.90;99.90
67163;DHT22;54092;53.088;8.850;2024-02-15T00:08:29;11.90;99.90
67163;DHT22;54092;53.088;8.850;2024-02-15T00:10:55;11.90;99.90
67163;DHT22;54092;53.088;8.850;2024-02-15T00:13:21;11.90;99.90
67163;DHT22;54092;53.088;8.850;2024-02-15T00:15:48;11.90;99.90
67163;DHT22;54092;53.088;8.850;2024-02-15T00:18:14;12.00;99.90
67163;DHT22;54092;53.088;8.850;2024-02-15T00:20:39;11.90;99.90
67163;DHT22;54092;53.088;8.850;2024-02-15T00:23:05;11.90;99.90
67163;DHT22;54092;53.088;8.850;2024-02-15T00:25:32;12.00;99.90
67163;DHT22;54092;53.088;8.850;2024-02-15T00:27:57;12.00;99.90
67163;DHT22;54092;53.088;8.850;2024-02-15T00:30:25;12.00;99.90
67163;DHT22;54092;53.088;8.850;2024-02-15T00:32:52;12.00;99.90
67163;DHT22;54092;53.088;8.850;2024-02-15T00:35:18;12.00;99.90
67163;DHT22;54092;53.088;8.850;2024-02-15T00:37:44;12.10;99.90
67163;DHT22;54092;53.088;8.850;2024-02-15T00:40:10;12.10;99.90
67163;DHT22;54092;53.088;8.850;2024-02-15T00:42:36;12.10;99.90
67163;DHT22;54092;53.088;8.850;2024-02-15T00:45:03;12.10;99.90
67163;DHT22;54092;53.088;8.850;2024-02-15T00:47:29;12.10;99.90
67163;DHT22;54092;53.088;8.850;2024-02-15T00:49:54;12.10;99.90
67163;DHT22;54092;53.088;8.850;2024-02-15T00:52:20;12.10;99.90
67163;DHT22;54092;53.088;8.850;2024-02-15T00:54:46;12.10;99.90
67163;DHT22;54092;53.088;8.850;2024-02-15T00:57:12;12.00;99.90
67163;DHT22;54092;53.088;8.850;2024-02-15T00:59:38;12.10;99.90
67163;DHT22;54092;53.088;8.850;2024-02-15T01:02:04;12.10;99.90
67163;DHT22;54092;53.088;8.850;2024-02-15T01:04:30;12.00;99.90
67163;DHT22;54092;53.088;8.850;2024-02-15T01:06:56;12.00;99.90
67163;DHT22;54092;53.088;8.850;2024-02-15T01:09:22;12.00;99.90
67163;DHT22;54092;53.088;8.850;2024-02-15T01:11:47;12.00;99.90
67163;DHT22;54092;53.088;8.850;2024-02-15T01:14:14;12.10;99.90
67163;DHT22;54092;53.088;8.850;2024-02-15T01:16:43;12.00;99.90
67163;DHT22;54092;53.088;8.850;2024-02-15T01:19:09;12.10;99.90
67163;DHT22;54092;53.088;8.850;2024-02-15T01:21:35;12.10;99.90
67163;DHT22;54092;53.088;8.850;2024-02-15T01:24:00;12.00;99.90
67163;DHT22;54092;53.088;8.850;2024-02-15T01:26:26;12.10;99.90
67163;DHT22;54092;53.088;8.850;2024-02-15T01:28:52;12.10;99.90
67163;DHT22;54092;53.088;8.850;2024-02-15T01:31:18;12.10;99.90
67163;DHT22;54092;53.088;8.850;2024-02-15T01:33:44;12.00;99.90
67163;DHT22;54092;53.088;8.850;2024-02-15T01:36:16;12.10;99.90
67163;DHT22;54092;53.088;8.850;2024-02-15T01:38:42;12.10;99.90
67163;DHT22;54092;53.088;8.850;2024-02-15T01:41:08;12.00;99.90
67163;DHT22;54092;53.088;8.850;2024-02-15T01:43:33;12.00;99.90
67163;DHT22;54092;53.088;8.850;2024-02-15T01:46:00;12.00;99.90
67163;DHT22;54092;53.088;8.850;2024-02-15T01:48:32;12.00;99.90
67163;DHT22;54092;53.088;8.850;2024-02-15T01:50:58;12.00;99.90
67163;DHT22;54092;53.088;8.850;2024-02-15T01:53:24;12.10;99.90
67163;DHT22;54092;53.088;8.850;2024-02-15T01:55:52;12.00;99.90
67163;DHT22;54092;53.088;8.850;2024-02-15T01:58:18;12.00;99.90
67163;DHT22;54092;53.088;8.850;2024-02-15T02:00:45;12.00;99.90
67163;DHT22;54092;53.088;8.850;2024-02-15T02:03:13;12.10;99.90
67163;DHT22;54092;53.088;8.850;2024-02-15T02:05:40;12.00;99.90
67163;DHT22;54092;53.088;8.850;2024-02-15T02:08:06;12.10;99.90
67163;DHT22;54092;53.088;8.850;2024-02-15T02:10:37;12.10;99.90
67163;DHT22;54092;53.088;8.850;2024-02-15T02:13:03;12.10;99.90
67163;DHT22;54092;53.088;8.850;2024-02-15T02:15:29;12.10;99.90
67163;DHT22;54092;53.088;8.850;2024-02-15T02:17:57;12.10;99.90
67163;DHT22;54092;53.088;8.850;2024-02-15T02:20:27;12.10;99.90
67163;DHT22;54092;53.088;8.850;2024-02-15T02:22:54;12.10;99.90
67163;DHT22;54092;53.088;8.850;2024-02-15T02:25:25;12.10;99.90
67163;DHT22;54092;53.088;8.850;2024-02-15T02:27:54;12.10;99.90
67163;DHT22;54092;53.088;8.850;2024-02-15T02:30:20;12.10;99.90
67163;DHT22;54092;53.088;8.850;2024-02-15T02:32:48;12.20;99.90
67163;DHT22;54092;53.088;8.850;2024-02-15T02:35:13;12.10;99.90
67163;DHT22;54092;53.088;8.850;2024-02-15T02:37:41;12.20;99.90
67163;DHT22;54092;53.088;8.850;2024-02-15T02:40:08;12.20;99.90
67163;DHT22;54092;53.088;8.850;2024-02-15T02:42:51;12.10;99.90
67163;DHT22;54092;53.088;8.850;2024-02-15T02:45:17;12.10;99.90
67163;DHT22;54092;53.088;8.850;2024-02-15T02:47:45;12.20;99.90
67163;DHT22;54092;53.088;8.850;2024-02-15T02:50:12;12.20;99.90
67163;DHT22;54092;53.088;8.850;2024-02-15T02:52:38;12.20;99.90
67163;DHT22;54092;53.088;8.850;2024-02-15T02:55:04;12.20;99.90
67163;DHT22;54092;53.088;8.850;2024-02-15T02:57:37;12.20;99.90
67163;DHT22;54092;53.088;8.850;2024-02-15T03:00:06;12.20;99.90
67163;DHT22;54092;53.088;8.850;2024-02-15T03:02:41;12.20;99.90
67163;DHT22;54092;53.088;8.850;2024-02-15T03:05:08;12.20;99.90
67163;DHT22;54092;53.088;8.850;2024-02-15T03:07:34;12.20;99.90
67163;DHT22;54092;53.088;8.850;2024-02-15T03:10:04;12.20;99.90
67163;DHT22;54092;53.088;8.850;2024-02-15T03:12:30;12.20;99.90
67163;DHT22;54092;53.088;8.850;2024-02-15T03:14:56;12.20;99.90
67163;DHT22;54092;53.088;8.850;2024-02-15T03:17:25;12.20;99.90
67163;DHT22;54092;53.088;8.850;2024-02-15T03:19:51;12.20;99.90
67163;DHT22;54092;53.088;8.850;2024-02-15T03:22:17;12.20;99.90
67163;DHT22;54092;53.088;8.850;2024-02-15T03:24:42;12.20;99.90
67163;DHT22;54092;53.088;8.850;2024-02-15T03:27:08;12.30;99.90
67163;DHT22;54092;53.088;8.850;2024-02-15T03:29:38;12.20;99.90
67163;DHT22;54092;53.088;8.850;2024-02-15T03:32:03;12.20;99.90
67163;DHT22;54092;53.088;8.850;2024-02-15T03:34:30;12.20;99.90
67163;DHT22;54092;53.088;8.850;2024-02-15T03:36:57;12.20;99.90
67163;DHT22;54092;53.088;8.850;2024-02-15T03:39:23;12.20;99.90
67163;DHT22;54092;53.088;8.850;2024-02-15T03:41:49;12.20;99.90
67163;DHT22;54092;53.088;8.850;2024-02-15T03:44:14;12.20;99.90
67163;DHT22;54092;53.088;8.850;2024-02-15T03:46:40;12.20;99.90
67163;DHT22;54092;53.088;8.850;2024-02-15T03:49:06;12.20;99.90
67163;DHT22;54092;53.088;8.850;2024-02-15T03:51:34;12.20;99.90
67163;DHT22;54092;53.088;8.850;2024-02-15T03:53:59;12.20;99.90
67163;DHT22;54092;53.088;8.850;2024-02-15T03:56:25;12.30;99.90
67163;DHT22;54092;53.088;8.850;2024-02-15T03:58:50;12.30;99.90
67163;DHT22;54092;53.088;8.850;2024-02-15T04:01:16;12.30;99.90
67163;DHT22;54092;53.088;8.850;2024-02-15T04:03:42;12.30;99.90
67163;DHT22;54092;53.088;8.850;2024-02-15T04:06:08;12.30;99.90
67163;DHT22;54092;53.088;8.850;2024-02-15T04:08:35;12.30;99.90
67163;DHT22;54092;53.088;8.850;2024-02-15T04:11:04;12.30;99.90
67163;DHT22;54092;53.088;8.850;2024-02-15T04:13:31;12.30;99.90
67163;DHT22;54092;53.088;8.850;2024-02-15T04:15:57;12.30;99.90
67163;DHT22;54092;53.088;8.850;2024-02-15T04:18:23;12.40;99.90
67163;DHT22;54092;53.088;8.850;2024-02-15T04:20:48;12.30;99.90
67163;DHT22;54092;53.088;8.850;2024-02-15T04:23:14;12.30;99.90
67163;DHT22;54092;53.088;8.850;2024-02-15T04:25:40;12.30;99.90
67163;DHT22;54092;53.088;8.850;2024-02-15T04:28:09;12.30;99.90
67163;DHT22;54092;53.088;8.850;2024-02-15T04:30:34;12.30;99.90
67163;DHT22;54092;53.088;8.850;2024-02-15T04:33:00;12.40;99.90
67163;DHT22;54092;53.088;8.850;2024-02-15T04:35:25;12.30;99.90
67163;DHT22;54092;53.088;8.850;2024-02-15T04:37:53;12.30;99.90
67163;DHT22;54092;53.088;8.850;2024-02-15T04:40:19;12.30;99.90
67163;DHT22;54092;53.088;8.850;2024-02-15T04:42:44;12.30;99.90
67163;DHT22;54092;53.088;8.850;2024-02-15T04:45:12;12.30;99.90
67163;DHT22;54092;53.088;8.850;2024-02-15T04:47:40;12.30;99.90
67163;DHT22;54092;53.088;8.850;2024-02-15T04:50:07;12.30;99.90
67163;DHT22;54092;53.088;8.850;2024-02-15T04:52:33;12.30;99.90
67163;DHT22;54092;53.088;8.850;2024-02-15T04:54:59;12.20;99.90
67163;DHT22;54092;53.088;8.850;2024-02-15T04:57:25;12.30;99.90
67163;DHT22;54092;53.088;8.850;2024-02-15T04:59:54;12.30;99.90
67163;DHT22;54092;53.088;8.850;2024-02-15T05:02:20;12.30;99.90
67163;DHT22;54092;53.088;8.850;2024-02-15T05:04:47;12.20;99.90
67163;DHT22;54092;53.088;8.850;2024-02-15T05:07:12;12.20;99.90
67163;DHT22;54092;53.088;8.850;2024-02-15T05:09:42;12.20;99.90
67163;DHT22;54092;53.088;8.850;2024-02-15T05:12:08;12.10;99.90
67163;DHT22;54092;53.088;8.850;2024-02-15T05:14:33;12.10;99.90
67163;DHT22;54092;53.088;8.850;2024-02-15T05:17:01;12.10;99.90
67163;DHT22;54092;53.088;8.850;2024-02-15T05:19:27;12.00;99.90
67163;DHT22;54092;53.088;8.850;2024-02-15T05:21:52;12.00;99.90
67163;DHT22;54092;53.088;8.850;2024-02-15T05:24:19;12.00;99.90
67163;DHT22;54092;53.088;8.850;2024-02-15T05:26:45;11.90;99.90
67163;DHT22;54092;53.088;8.850;2024-02-15T05:29:15;11.90;99.90
67163;DHT22;54092;53.088;8.850;2024-02-15T05:31:42;11.90;99.90
67163;DHT22;54092;53.088;8.850;2024-02-15T05:34:07;11.80;99.90
67163;DHT22;54092;53.088;8.850;2024-02-15T05:36:33;11.90;99.90
67163;DHT22;54092;53.088;8.850;2024-02-15T05:38:59;11.90;99.90
67163;DHT22;54092;53.088;8.850;2024-02-15T05:41:25;11.80;99.90
67163;DHT22;54092;53.088;8.850;2024-02-15T05:43:51;11.90;99.90
67163;DHT22;54092;53.088;8.850;2024-02-15T05:46:19;11.80;99.90
67163;DHT22;54092;53.088;8.850;2024-02-15T05:48:48;11.80;99.90
67163;DHT22;54092;53.088;8.850;2024-02-15T05:51:14;11.90;99.90
67163;DHT22;54092;53.088;8.850;2024-02-15T05:53:40;11.90;99.90
67163;DHT22;54092;53.088;8.850;2024-02-15T05:56:08;11.80;99.90
67163;DHT22;54092;53.088;8.850;2024-02-15T05:58:34;11.80;99.90
67163;DHT22;54092;53.088;8.850;2024-02-15T06:01:02;11.80;99.90
67163;DHT22;54092;53.088;8.850;2024-02-15T06:03:28;11.80;99.90
67163;DHT22;54092;53.088;8.850;2024-02-15T06:05:54;11.80;99.90
67163;DHT22;54092;53.088;8.850;2024-02-15T06:08:26;11.90;99.90
67163;DHT22;54092;53.088;8.850;2024-02-15T06:10:53;11.90;99.90
67163;DHT22;54092;53.088;8.850;2024-02-15T06:13:19;11.90;99.90
67163;DHT22;54092;53.088;8.850;2024-02-15T06:15:45;11.80;99.90
67163;DHT22;54092;53.088;8.850;2024-02-15T06:18:14;11.90;99.90
67163;DHT22;54092;53.088;8.850;2024-02-15T06:20:41;11.90;99.90
67163;DHT22;54092;53.088;8.850;2024-02-15T06:23:08;11.80;99.90
67163;DHT22;54092;53.088;8.850;2024-02-15T06:25:34;11.80;99.90
67163;DHT22;54092;53.088;8.850;2024-02-15T06:28:00;11.80;99.90
67163;DHT22;54092;53.088;8.850;2024-02-15T06:30:38;11.90;99.90
67163;DHT22;54092;53.088;8.850;2024-02-15T06:33:22;11.90;99.90
67163;DHT22;54092;53.088;8.850;2024-02-15T06:36:07;11.80;99.90
67163;DHT22;54092;53.088;8.850;2024-02-15T06:38:51;11.80;99.90
67163;DHT22;54092;53.088;8.850;2024-02-15T06:41:35;11.80;99.90
67163;DHT22;54092;53.088;8.850;2024-02-15T06:44:00;11.90;99.90
67163;DHT22;54092;53.088;8.850;2024-02-15T06:46:26;11.90;99.90
67163;DHT22;54092;53.088;8.850;2024-02-15T06:48:52;11.90;99.90
67163;DHT22;54092;53.088;8.850;2024-02-15T06:51:18;11.90;99.90
67163;DHT22;54092;53.088;8.850;2024-02-15T06:53:44;11.90;99.90
67163;DHT22;54092;53.088;8.850;2024-02-15T06:56:10;11.90;99.90
67163;DHT22;54092;53.088;8.850;2024-02-15T06:58:36;11.90;99.90
67163;DHT22;54092;53.088;8.850;2024-02-15T07:01:01;11.90;99.90
67163;DHT22;54092;53.088;8.850;2024-02-15T07:03:28;11.90;99.90
67163;DHT22;54092;53.088;8.850;2024-02-15T07:05:55;11.90;99.90
67163;DHT22;54092;53.088;8.850;2024-02-15T07:08:21;11.90;99.90
67163;DHT22;54092;53.088;8.850;2024-02-15T07:10:50;11.90;99.90
67163;DHT22;54092;53.088;8.850;2024-02-15T07:13:17;11.90;99.90
67163;DHT22;54092;53.088;8.850;2024-02-15T07:15:42;11.90;99.90
67163;DHT22;54092;53.088;8.850;2024-02-15T07:18:09;12.00;99.90
67163;DHT22;54092;53.088;8.850;2024-02-15T07:20:36;11.90;99.90
67163;DHT22;54092;53.088;8.850;2024-02-15T07:23:02;12.00;99.90
67163;DHT22;54092;53.088;8.850;2024-02-15T07:25:27;12.00;99.90
67163;DHT22;54092;53.088;8.850;2024-02-15T07:27:53;12.00;99.90
67163;DHT22;54092;53.088;8.850;2024-02-15T07:30:19;12.00;99.90
67163;DHT22;54092;53.088;8.850;2024-02-15T07:32:45;12.10;99.90
67163;DHT22;54092;53.088;8.850;2024-02-15T07:35:11;12.00;99.90
67163;DHT22;54092;53.088;8.850;2024-02-15T07:37:39;12.00;99.90
67163;DHT22;54092;53.088;8.850;2024-02-15T07:40:05;12.00;99.90
67163;DHT22;54092;53.088;8.850;2024-02-15T07:42:33;12.00;99.90
67163;DHT22;54092;53.088;8.850;2024-02-15T07:45:00;12.10;99.90
67163;DHT22;54092;53.088;8.850;2024-02-15T07:47:26;12.10;99.90
67163;DHT22;54092;53.088;8.850;2024-02-15T07:49:52;12.10;99.90
67163;DHT22;54092;53.088;8.850;2024-02-15T07:52:17;12.10;99.90
67163;DHT22;54092;53.088;8.850;2024-02-15T07:54:43;12.10;99.90
67163;DHT22;54092;53.088;8.850;2024-02-15T07:57:09;12.10;99.90
67163;DHT22;54092;53.088;8.850;2024-02-15T07:59:34;12.10;99.90
67163;DHT22;54092;53.088;8.850;2024-02-15T08:02:01;12.10;99.90
67163;DHT22;54092;53.088;8.850;2024-02-15T08:04:26;12.20;99.90
67163;DHT22;54092;53.088;8.850;2024-02-15T08:06:54;12.20;99.90
67163;DHT22;54092;53.088;8.850;2024-02-15T08:09:19;12.20;99.90
67163;DHT22;54092;53.088;8.850;2024-02-15T08:11:48;12.20;99.90
67163;DHT22;54092;53.088;8.850;2024-02-15T08:14:14;12.30;99.90
67163;DHT22;54092;53.088;8.850;2024-02-15T08:16:40;12.30;99.90
67163;DHT22;54092;53.088;8.850;2024-02-15T08:19:06;12.30;99.90
67163;DHT22;54092;53.088;8.850;2024-02-15T08:21:33;12.30;99.90
67163;DHT22;54092;53.088;8.850;2024-02-15T08:24:00;12.30;99.90
67163;DHT22;54092;53.088;8.850;2024-02-15T08:26:26;12.40;99.90
67163;DHT22;54092;53.088;8.850;2024-02-15T08:28:52;12.40;99.90
67163;DHT22;54092;53.088;8.850;2024-02-15T08:31:18;12.40;99.90
67163;DHT22;54092;53.088;8.850;2024-02-15T08:33:45;12.40;99.90
67163;DHT22;54092;53.088;8.850;2024-02-15T08:36:11;12.40;99.90
67163;DHT22;54092;53.088;8.850;2024-02-15T08:38:38;12.40;99.90
67163;DHT22;54092;53.088;8.850;2024-02-15T08:41:04;12.50;99.90
67163;DHT22;54092;53.088;8.850;2024-02-15T08:43:30;12.50;99.90
67163;DHT22;54092;53.088;8.850;2024-02-15T08:45:58;12.40;99.90
67163;DHT22;54092;53.088;8.850;2024-02-15T08:48:24;12.40;99.90
67163;DHT22;54092;53.088;8.850;2024-02-15T08:50:49;12.40;99.90
67163;DHT22;54092;53.088;8.850;2024-02-15T08:53:15;12.50;99.90
67163;DHT22;54092;53.088;8.850;2024-02-15T08:55:41;12.50;99.90
67163;DHT22;54092;53.088;8.850;2024-02-15T08:58:07;12.50;99.90
67163;DHT22;54092;53.088;8.850;2024-02-15T09:00:34;12.50;99.90
67163;DHT22;54092;53.088;8.850;2024-02-15T09:03:01;12.60;99.90
67163;DHT22;54092;53.088;8.850;2024-02-15T09:05:26;12.50;99.90
67163;DHT22;54092;53.088;8.850;2024-02-15T09:07:52;12.60;99.90
67163;DHT22;54092;53.088;8.850;2024-02-15T09:10:17;12.70;99.90
67163;DHT22;54092;53.088;8.850;2024-02-15T09:12:44;12.60;99.90
67163;DHT22;54092;53.088;8.850;2024-02-15T09:15:12;12.60;99.90
67163;DHT22;54092;53.088;8.850;2024-02-15T09:17:38;12.60;99.90
67163;DHT22;54092;53.088;8.850;2024-02-15T09:20:10;12.70;99.90
67163;DHT22;54092;53.088;8.850;2024-02-15T09:22:46;12.70;99.90
67163;DHT22;54092;53.088;8.850;2024-02-15T09:25:12;12.80;99.90
67163;DHT22;54092;53.088;8.850;2024-02-15T09:27:39;12.80;99.90
67163;DHT22;54092;53.088;8.850;2024-02-15T09:30:05;12.80;99.90
67163;DHT22;54092;53.088;8.850;2024-02-15T09:32:38;12.90;99.90
67163;DHT22;54092;53.088;8.850;2024-02-15T09:35:04;12.90;99.90
67163;DHT22;54092;53.088;8.850;2024-02-15T09:37:36;12.80;99.90
67163;DHT22;54092;53.088;8.850;2024-02-15T09:40:07;12.80;99.90
67163;DHT22;54092;53.088;8.850;2024-02-15T09:42:33;12.80;99.90
67163;DHT22;54092;53.088;8.850;2024-02-15T09:45:02;12.70;99.90
67163;DHT22;54092;53.088;8.850;2024-02-15T09:47:35;12.70;99.90
67163;DHT22;54092;53.088;8.850;2024-02-15T09:50:14;12.70;99.90
67163;DHT22;54092;53.088;8.850;2024-02-15T09:52:43;12.70;99.90
67163;DHT22;54092;53.088;8.850;2024-02-15T09:55:09;12.60;99.90
67163;DHT22;54092;53.088;8.850;2024-02-15T09:57:38;12.60;99.90
67163;DHT22;54092;53.088;8.850;2024-02-15T10:00:04;12.60;99.90
67163;DHT22;54092;53.088;8.850;2024-02-15T10:02:33;12.60;99.90
67163;DHT22;54092;53.088;8.850;2024-02-15T10:05:01;12.60;99.90
67163;DHT22;54092;53.088;8.850;2024-02-15T10:07:27;12.60;99.90
67163;DHT22;54092;53.088;8.850;2024-02-15T10:09:53;12.60;99.90
67163;DHT22;54092;53.088;8.850;2024-02-15T10:12:19;12.60;99.90
67163;DHT22;54092;53.088;8.850;2024-02-15T10:14:52;12.60;99.90
67163;DHT22;54092;53.088;8.850;2024-02-15T10:17:19;12.60;99.90
67163;DHT22;54092;53.088;8.850;2024-02-15T10:19:44;12.60;99.90
67163;DHT22;54092;53.088;8.850;2024-02-15T10:22:12;12.60;99.90
67163;DHT22;54092;53.088;8.850;2024-02-15T10:24:40;12.60;99.90
67163;DHT22;54092;53.088;8.850;2024-02-15T10:27:06;12.60;99.90
67163;DHT22;54092;53.088;8.850;2024-02-15T10:29:32;12.60;99.90
67163;DHT22;54092;53.088;8.850;2024-02-15T10:32:00;12.60;99.90
67163;DHT22;54092;53.088;8.850;2024-02-15T10:34:25;12.60;99.90
67163;DHT22;54092;53.088;8.850;2024-02-15T10:36:54;12.60;99.90
67163;DHT22;54092;53.088;8.850;2024-02-15T10:39:22;12.60;99.90
67163;DHT22;54092;53.088;8.850;2024-02-15T10:41:53;12.60;99.90
67163;DHT22;54092;53.088;8.850;2024-02-15T10:44:23;12.60;99.90
67163;DHT22;54092;53.088;8.850;2024-02-15T10:46:50;12.60;99.90
67163;DHT22;54092;53.088;8.850;2024-02-15T10:49:23;12.60;99.90
67163;DHT22;54092;53.088;8.850;2024-02-15T10:51:59;12.60;99.90
67163;DHT22;54092;53.088;8.850;2024-02-15T10:57:10;12.70;99.90
67163;DHT22;54092;53.088;8.850;2024-02-15T10:59:38;12.70;99.90
67163;DHT22;54092;53.088;8.850;2024-02-15T11:02:23;12.60;99.90
67163;DHT22;54092;53.088;8.850;2024-02-15T11:04:53;12.60;99.90
67163;DHT22;54092;53.088;8.850;2024-02-15T11:07:25;12.60;99.90
67163;DHT22;54092;53.088;8.850;2024-02-15T11:09:53;12.60;99.90
67163;DHT22;54092;53.088;8.850;2024-02-15T11:12:19;12.50;99.90
67163;DHT22;54092;53.088;8.850;2024-02-15T11:14:45;12.60;99.90
67163;DHT22;54092;53.088;8.850;2024-02-15T11:17:10;12.60;99.90
67163;DHT22;54092;53.088;8.850;2024-02-15T11:22:16;12.80;99.90
67163;DHT22;54092;53.088;8.850;2024-02-15T11:24:52;12.80;99.90
67163;DHT22;54092;53.088;8.850;2024-02-15T11:27:28;12.80;99.90
67163;DHT22;54092;53.088;8.850;2024-02-15T11:30:01;12.70;99.90
67163;DHT22;54092;53.088;8.850;2024-02-15T11:32:48;12.70;99.90
67163;DHT22;54092;53.088;8.850;2024-02-15T11:37:50;12.60;99.90
67163;DHT22;54092;53.088;8.850;2024-02-15T11:40:23;12.60;99.90
67163;DHT22;54092;53.088;8.850;2024-02-15T11:42:53;12.60;99.90
67163;DHT22;54092;53.088;8.850;2024-02-15T11:45:19;12.60;99.90
67163;DHT22;54092;53.088;8.850;2024-02-15T11:47:50;12.60;99.90
67163;DHT22;54092;53.088;8.850;2024-02-15T11:50:17;12.60;99.90
67163;DHT22;54092;53.088;8.850;2024-02-15T11:52:44;12.60;99.90
67163;DHT22;54092;53.088;8.850;2024-02-15T11:55:11;12.60;99.90
67163;DHT22;54092;53.088;8.850;2024-02-15T11:57:44;12.60;99.90
67163;DHT22;54092;53.088;8.850;2024-02-15T12:00:26;12.60;99.90
67163;DHT22;54092;53.088;8.850;2024-02-15T12:03:10;12.60;99.90
67163;DHT22;54092;53.088;8.850;2024-02-15T12:06:04;12.60;99.90
67163;DHT22;54092;53.088;8.850;2024-02-15T12:08:51;12.60;99.90
67163;DHT22;54092;53.088;8.850;2024-02-15T12:11:35;12.70;99.90
67163;DHT22;54092;53.088;8.850;2024-02-15T12:14:19;12.70;99.90
67163;DHT22;54092;53.088;8.850;2024-02-15T12:17:04;12.70;99.90
67163;DHT22;54092;53.088;8.850;2024-02-15T12:19:50;12.70;99.90
67163;DHT22;54092;53.088;8.850;2024-02-15T12:22:19;12.80;99.90
67163;DHT22;54092;53.088;8.850;2024-02-15T12:24:53;12.80;99.90
67163;DHT22;54092;53.088;8.850;2024-02-15T12:27:19;12.80;99.90
67163;DHT22;54092;53.088;8.850;2024-02-15T12:29:51;12.80;99.90
67163;DHT22;54092;53.088;8.850;2024-02-15T12:32:22;12.90;99.90
67163;DHT22;54092;53.088;8.850;2024-02-15T12:34:48;12.90;99.90
67163;DHT22;54092;53.088;8.850;2024-02-15T12:37:17;12.90;99.90
67163;DHT22;54092;53.088;8.850;2024-02-15T12:39:43;12.90;99.90
67163;DHT22;54092;53.088;8.850;2024-02-15T12:42:09;12.90;99.90
67163;DHT22;54092;53.088;8.850;2024-02-15T12:44:35;12.90;99.90
67163;DHT22;54092;53.088;8.850;2024-02-15T12:47:00;12.90;99.90
67163;DHT22;54092;53.088;8.850;2024-02-15T12:49:29;12.80;99.90
67163;DHT22;54092;53.088;8.850;2024-02-15T12:55:11;12.80;99.90
67163;DHT22;54092;53.088;8.850;2024-02-15T12:57:37;12.90;99.90
67163;DHT22;54092;53.088;8.850;2024-02-15T13:00:06;12.80;99.90
67163;DHT22;54092;53.088;8.850;2024-02-15T13:02:39;12.80;99.90
67163;DHT22;54092;53.088;8.850;2024-02-15T13:05:06;12.80;99.90
67163;DHT22;54092;53.088;8.850;2024-02-15T13:07:34;12.80;99.90
67163;DHT22;54092;53.088;8.850;2024-02-15T13:10:00;12.80;99.90
67163;DHT22;54092;53.088;8.850;2024-02-15T13:12:26;12.80;99.90
67163;DHT22;54092;53.088;8.850;2024-02-15T13:14:51;12.80;99.90
67163;DHT22;54092;53.088;8.850;2024-02-15T13:17:17;12.80;99.90
67163;DHT22;54092;53.088;8.850;2024-02-15T13:19:46;12.80;99.90
67163;DHT22;54092;53.088;8.850;2024-02-15T13:22:14;12.80;99.90
67163;DHT22;54092;53.088;8.850;2024-02-15T13:24:41;12.80;99.90
67163;DHT22;54092;53.088;8.850;2024-02-15T13:27:07;12.80;99.90
67163;DHT22;54092;53.088;8.850;2024-02-15T13:29:35;12.80;99.90
67163;DHT22;54092;53.088;8.850;2024-02-15T13:32:01;12.80;99.90
67163;DHT22;54092;53.088;8.850;2024-02-15T13:34:26;12.80;99.90
67163;DHT22;54092;53.088;8.850;2024-02-15T13:36:52;12.80;99.90
67163;DHT22;54092;53.088;8.850;2024-02-15T13:39:20;12.80;99.90
67163;DHT22;54092;53.088;8.850;2024-02-15T13:41:47;12.70;99.90
67163;DHT22;54092;53.088;8.850;2024-02-15T13:44:12;12.80;99.90
67163;DHT22;54092;53.088;8.850;2024-02-15T13:46:40;12.90;99.90
67163;DHT22;54092;53.088;8.850;2024-02-15T13:49:05;12.90;99.90
67163;DHT22;54092;53.088;8.850;2024-02-15T13:51:31;12.90;99.90
67163;DHT22;54092;53.088;8.850;2024-02-15T13:53:56;12.90;99.90
67163;DHT22;54092;53.088;8.850;2024-02-15T13:56:22;12.90;99.90
67163;DHT22;54092;53.088;8.850;2024-02-15T13:58:47;12.90;99.90
67163;DHT22;54092;53.088;8.850;2024-02-15T14:01:13;12.90;99.90
67163;DHT22;54092;53.088;8.850;2024-02-15T14:03:40;12.90;99.90
67163;DHT22;54092;53.088;8.850;2024-02-15T14:06:06;12.90;99.90
67163;DHT22;54092;53.088;8.850;2024-02-15T14:08:32;12.90;99.90
67163;DHT22;54092;53.088;8.850;2024-02-15T14:10:57;12.90;99.90
67163;DHT22;54092;53.088;8.850;2024-02-15T14:13:23;12.90;99.90
67163;DHT22;54092;53.088;8.850;2024-02-15T14:15:50;12.90;99.90
67163;DHT22;54092;53.088;8.850;2024-02-15T14:18:16;12.80;99.90
67163;DHT22;54092;53.088;8.850;2024-02-15T14:20:45;12.80;99.90
67163;DHT22;54092;53.088;8.850;2024-02-15T14:23:14;12.80;99.90
67163;DHT22;54092;53.088;8.850;2024-02-15T14:25:40;12.80;99.90
67163;DHT22;54092;53.088;8.850;2024-02-15T14:28:06;12.80;99.90
67163;DHT22;54092;53.088;8.850;2024-02-15T14:30:35;12.80;99.90
67163;DHT22;54092;53.088;8.850;2024-02-15T14:33:19;12.80;99.90
67163;DHT22;54092;53.088;8.850;2024-02-15T14:35:48;12.80;99.90
67163;DHT22;54092;53.088;8.850;2024-02-15T14:38:14;12.90;99.90
67163;DHT22;54092;53.088;8.850;2024-02-15T14:40:45;12.90;99.90
67163;DHT22;54092;53.088;8.850;2024-02-15T14:43:13;12.90;99.90
67163;DHT22;54092;53.088;8.850;2024-02-15T14:45:40;12.90;99.90
67163;DHT22;54092;53.088;8.850;2024-02-15T14:48:07;12.90;99.90
67163;DHT22;54092;53.088;8.850;2024-02-15T14:50:36;12.90;99.90
67163;DHT22;54092;53.088;8.850;2024-02-15T14:53:02;12.90;99.90
67163;DHT22;54092;53.088;8.850;2024-02-15T14:55:28;12.90;99.90
67163;DHT22;54092;53.088;8.850;2024-02-15T14:57:59;12.90;99.90
67163;DHT22;54092;53.088;8.850;2024-02-15T15:00:24;12.90;99.90
67163;DHT22;54092;53.088;8.850;2024-02-15T15:02:52;12.90;99.90
67163;DHT22;54092;53.088;8.850;2024-02-15T15:05:18;12.80;99.90
67163;DHT22;54092;53.088;8.850;2024-02-15T15:08:03;12.80;99.90
67163;DHT22;54092;53.088;8.850;2024-02-15T15:10:48;12.90;99.90
67163;DHT22;54092;53.088;8.850;2024-02-15T15:13:33;12.90;99.90
67163;DHT22;54092;53.088;8.850;2024-02-15T15:15:59;12.90;99.90
67163;DHT22;54092;53.088;8.850;2024-02-15T15:18:25;12.90;99.90
67163;DHT22;54092;53.088;8.850;2024-02-15T15:20:51;12.90;99.90
67163;DHT22;54092;53.088;8.850;2024-02-15T15:23:16;12.90;99.90
67163;DHT22;54092;53.088;8.850;2024-02-15T15:25:42;12.90;99.90
67163;DHT22;54092;53.088;8.850;2024-02-15T15:28:08;12.90;99.90
67163;DHT22;54092;53.088;8.850;2024-02-15T15:30:34;12.90;99.90
67163;DHT22;54092;53.088;8.850;2024-02-15T15:33:00;13.00;99.90
67163;DHT22;54092;53.088;8.850;2024-02-15T15:35:26;13.00;99.90
67163;DHT22;54092;53.088;8.850;2024-02-15T15:37:53;13.00;99.90
67163;DHT22;54092;53.088;8.850;2024-02-15T15:40:19;13.00;99.90
67163;DHT22;54092;53.088;8.850;2024-02-15T15:42:44;13.00;99.90
67163;DHT22;54092;53.088;8.850;2024-02-15T15:45:10;13.00;99.90